Time;durP1;ratioP1;P1;durP2;ratioP2;P2;SDS_P1;SDS_P2;PMS_P1;PMS_P2;Temp;Humidity;BMP_temperature;BMP_pressure;BME280_temperature;BME280_humidity;BME280_pressure;Samples;Min_cycle;Max_cycle;Signal;HPM_P1;HPM_P2
2022/06/10 00:01:06;;;;;;;3.92;1.40;;;22.00;99.90;;;;;;5108774;28;20043;-75
2022/06/10 00:04:51;;;;;;;4.47;1.90;;;21.70;99.90;;;;;;5066108;28;20143;-78
2022/06/10 00:07:19;;;;;;;5.22;2.25;;;21.60;99.90;;;;;;5092395;28;20063;-78
2022/06/10 00:09:47;;;;;;;10.50;3.45;;;21.60;99.90;;;;;;5092741;28;20040;-76
2022/06/10 00:12:14;;;;;;;8.75;3.30;;;21.60;99.90;;;;;;5091104;28;20059;-76
2022/06/10 00:14:42;;;;;;;8.90;2.78;;;21.60;99.90;;;;;;5074149;28;20502;-76
2022/06/10 00:17:10;;;;;;;6.28;1.98;;;21.60;99.90;;;;;;5090883;28;20048;-74
2022/06/10 00:19:37;;;;;;;5.95;2.65;;;21.60;99.90;;;;;;5091013;28;20036;-74
2022/06/10 00:22:05;;;;;;;5.85;2.05;;;21.60;99.90;;;;;;5090787;28;20127;-74
2022/06/10 00:24:32;;;;;;;3.28;1.27;;;21.70;99.90;;;;;;5074362;28;20124;-74
2022/06/10 00:27:00;;;;;;;4.80;1.45;;;21.70;99.90;;;;;;5091268;28;20143;-74
2022/06/10 00:29:27;;;;;;;5.10;1.48;;;21.70;99.90;;;;;;5073888;28;20052;-74
2022/06/10 00:31:55;;;;;;;6.90;2.30;;;21.70;99.90;;;;;;5090971;28;20051;-74
2022/06/10 00:34:22;;;;;;;8.88;1.70;;;21.70;99.90;;;;;;5091878;28;20048;-74
2022/06/10 00:36:50;;;;;;;2.70;1.40;;;21.60;99.90;;;;;;5090265;28;20056;-74
2022/06/10 00:39:18;;;;;;;5.07;1.65;;;21.50;99.90;;;;;;5090756;28;20064;-74
2022/06/10 00:41:45;;;;;;;3.60;1.83;;;21.30;99.90;;;;;;5073951;28;20047;-74
2022/06/10 00:44:33;;;;;;;3.88;1.60;;;21.20;99.90;;;;;;5090572;28;20075;-74
2022/06/10 00:47:04;;;;;;;4.03;1.23;;;21.20;99.90;;;;;;5095738;28;20044;-74
2022/06/10 00:49:32;;;;;;;6.40;1.92;;;21.20;99.90;;;;;;5077383;28;20050;-74
2022/06/10 00:52:00;;;;;;;2.70;1.13;;;21.20;99.90;;;;;;5112016;28;20050;-74
2022/06/10 00:54:35;;;;;;;3.92;1.60;;;21.20;99.90;;;;;;5110572;28;20043;-74
2022/06/10 00:57:19;;;;;;;6.68;2.85;;;21.30;99.90;;;;;;5110896;28;20426;-74
2022/06/10 01:00:14;;;;;;;4.38;2.70;;;21.30;99.90;;;;;;5094013;28;20079;-74
2022/06/10 01:02:43;;;;;;;6.00;1.60;;;21.30;99.90;;;;;;5110846;28;20771;-74
2022/06/10 01:05:16;;;;;;;2.55;1.35;;;21.30;99.90;;;;;;5112029;28;20058;-74
2022/06/10 01:07:50;;;;;;;8.23;1.88;;;21.30;99.90;;;;;;5110574;28;20100;-75
2022/06/10 01:10:19;;;;;;;5.45;1.38;;;21.30;99.90;;;;;;5104342;28;20057;-74
2022/06/10 01:13:08;;;;;;;2.90;1.20;;;21.30;99.90;;;;;;5110276;28;20059;-74
2022/06/10 01:15:42;;;;;;;3.10;1.55;;;21.30;99.90;;;;;;5110276;28;20036;-74
2022/06/10 01:18:31;;;;;;;4.57;1.95;;;21.30;99.90;;;;;;5093708;28;20047;-74
2022/06/10 01:20:58;;;;;;;4.88;1.38;;;21.30;99.90;;;;;;5093396;28;20097;-74
2022/06/10 01:23:54;;;;;;;5.50;2.25;;;21.30;99.90;;;;;;5111556;28;20092;-74
2022/06/10 01:27:47;;;;;;;5.53;1.27;;;21.30;99.90;;;;;;5095793;28;20031;-74
2022/06/10 01:29:43;;;;;;;3.20;1.40;;;21.30;99.90;;;;;;5111003;28;20039;-74
2022/06/10 01:32:36;;;;;;;3.75;1.35;;;21.30;99.90;;;;;;5091926;28;20044;-74
2022/06/10 01:35:23;;;;;;;3.92;1.27;;;21.30;99.90;;;;;;5091374;28;20040;-74
2022/06/10 01:38:08;;;;;;;4.07;1.45;;;21.30;99.90;;;;;;5072506;28;20048;-74
2022/06/10 01:40:54;;;;;;;7.38;2.15;;;21.30;99.90;;;;;;5089582;28;20058;-74
2022/06/10 01:43:31;;;;;;;3.63;1.58;;;21.20;99.90;;;;;;5098958;28;20112;-76
2022/06/10 01:46:37;;;;;;;3.95;2.17;;;21.20;99.90;;;;;;5109844;28;20047;-74
2022/06/10 01:49:17;;;;;;;5.97;2.03;;;21.20;99.90;;;;;;5080112;28;20502;-74
2022/06/10 01:51:53;;;;;;;3.42;1.50;;;21.20;99.90;;;;;;5109600;28;20126;-74
2022/06/10 01:54:40;;;;;;;6.45;2.40;;;21.20;99.90;;;;;;5109620;28;20458;-74
2022/06/10 01:57:13;;;;;;;6.63;2.45;;;21.30;99.90;;;;;;5093052;28;20043;-74
2022/06/10 01:59:51;;;;;;;5.07;1.90;;;21.30;99.90;;;;;;5109336;28;20043;-74
2022/06/10 02:02:25;;;;;;;3.67;1.75;;;21.30;99.90;;;;;;5094862;28;20059;-74
2022/06/10 02:05:12;;;;;;;4.10;2.20;;;21.30;99.90;;;;;;5109935;28;20378;-74
2022/06/10 02:07:48;;;;;;;3.53;1.90;;;21.30;99.90;;;;;;5109482;28;20045;-74
2022/06/10 02:10:39;;;;;;;6.75;1.70;;;21.20;99.90;;;;;;5077056;28;20078;-74
2022/06/10 02:13:15;;;;;;;4.43;1.77;;;21.20;99.90;;;;;;5110497;28;20063;-74
2022/06/10 02:15:54;;;;;;;7.38;2.05;;;21.20;99.90;;;;;;5092694;28;20054;-74
2022/06/10 02:18:55;;;;;;;3.90;1.58;;;21.20;99.90;;;;;;5110904;28;20039;-74
2022/06/10 02:21:41;;;;;;;2.38;1.30;;;21.20;99.90;;;;;;5109598;28;20040;-74
2022/06/10 02:24:23;;;;;;;2.58;1.17;;;21.20;99.90;;;;;;5109588;28;20450;-74
2022/06/10 02:26:54;;;;;;;6.25;2.28;;;21.20;99.90;;;;;;5108686;28;20075;-74
2022/06/10 02:29:29;;;;;;;3.90;1.52;;;21.10;99.90;;;;;;5110493;28;20044;-74
2022/06/10 02:31:59;;;;;;;4.72;2.05;;;21.10;99.90;;;;;;5109542;28;20047;-74
2022/06/10 02:34:28;;;;;;;4.15;1.60;;;21.00;99.90;;;;;;5106573;28;20050;-74
2022/06/10 02:37:12;;;;;;;4.20;2.28;;;21.00;99.90;;;;;;5092363;28;20071;-74
2022/06/10 02:39:39;;;;;;;3.75;1.52;;;21.00;99.90;;;;;;5092894;28;20156;-74
2022/06/10 02:42:17;;;;;;;6.25;2.53;;;21.00;99.90;;;;;;5109287;28;20126;-74
2022/06/10 02:45:14;;;;;;;4.25;2.08;;;21.00;99.90;;;;;;5092433;28;20063;-74
2022/06/10 02:48:06;;;;;;;4.20;2.38;;;20.90;99.90;;;;;;5109112;28;20759;-74
2022/06/10 02:50:34;;;;;;;4.07;1.90;;;20.90;99.90;;;;;;5110523;28;20075;-74
2022/06/10 02:53:04;;;;;;;3.92;2.40;;;20.90;99.90;;;;;;5109058;28;20047;-74
2022/06/10 02:55:32;;;;;;;4.43;2.10;;;20.90;99.90;;;;;;5109239;28;20067;-74
2022/06/10 03:01:32;;;;;;;3.63;1.60;;;20.80;99.90;;;;;;5106915;28;20044;-74
2022/06/10 03:04:36;;;;;;;2.95;1.95;;;20.80;99.90;;;;;;5110388;28;20039;-75
2022/06/10 03:07:10;;;;;;;3.80;2.05;;;20.80;99.90;;;;;;5121382;28;20051;-74
2022/06/10 03:10:01;;;;;;;3.58;2.20;;;20.70;99.90;;;;;;5092260;28;20040;-74
2022/06/10 03:12:32;;;;;;;3.40;2.33;;;20.70;99.90;;;;;;5095339;28;20133;-74
2022/06/10 03:15:30;;;;;;;2.78;1.50;;;20.70;99.90;;;;;;5113112;28;20039;-74
2022/06/10 03:18:31;;;;;;;3.95;1.73;;;20.70;99.90;;;;;;5096043;28;20108;-74
2022/06/10 03:21:11;;;;;;;3.15;1.60;;;20.70;99.90;;;;;;5113195;28;20040;-74
2022/06/10 03:23:45;;;;;;;3.05;1.50;;;20.70;99.90;;;;;;5111781;28;20031;-74
2022/06/10 03:26:30;;;;;;;4.00;1.80;;;20.70;99.90;;;;;;5095536;28;20124;-74
2022/06/10 03:29:41;;;;;;;2.23;1.47;;;20.70;99.90;;;;;;5100567;28;20044;-74
2022/06/10 03:32:32;;;;;;;3.38;1.77;;;20.70;99.90;;;;;;5060295;28;20164;-74
2022/06/10 03:35:27;;;;;;;4.40;2.63;;;20.70;99.90;;;;;;5070813;28;20044;-74
2022/06/10 03:37:58;;;;;;;4.00;1.83;;;20.70;99.90;;;;;;5087676;28;20513;-74
2022/06/10 03:40:28;;;;;;;4.32;2.17;;;20.70;99.90;;;;;;5091769;28;20047;-74
2022/06/10 03:42:58;;;;;;;5.57;2.60;;;20.60;99.90;;;;;;5092088;28;20036;-74
2022/06/10 03:45:32;;;;;;;4.53;2.10;;;20.60;99.90;;;;;;5092272;28;20774;-74
2022/06/10 03:48:00;;;;;;;2.75;2.22;;;20.60;99.90;;;;;;5077829;28;20043;-74
2022/06/10 03:50:38;;;;;;;4.07;1.80;;;20.70;99.90;;;;;;5090604;28;20048;-74
2022/06/10 03:53:07;;;;;;;3.80;1.73;;;20.60;99.90;;;;;;5073209;28;20840;-74
2022/06/10 03:55:34;;;;;;;3.45;1.92;;;20.60;99.90;;;;;;5124572;27;20044;-75
2022/06/10 03:58:02;;;;;;;3.92;1.77;;;20.60;99.90;;;;;;5093770;28;20420;-74
2022/06/10 04:00:29;;;;;;;5.20;1.85;;;20.60;99.90;;;;;;5089764;28;20051;-74
2022/06/10 04:02:57;;;;;;;2.67;1.58;;;20.60;99.90;;;;;;5093070;28;20056;-75
2022/06/10 04:05:25;;;;;;;7.57;1.55;;;20.60;99.90;;;;;;5088444;28;20397;-75
2022/06/10 04:07:52;;;;;;;4.05;2.17;;;20.60;99.90;;;;;;5095015;28;20050;-74
2022/06/10 04:10:23;;;;;;;4.40;1.90;;;20.60;99.90;;;;;;5112903;28;20047;-75
2022/06/10 04:12:51;;;;;;;3.95;1.60;;;20.60;99.90;;;;;;5108427;28;20062;-74
2022/06/10 04:15:19;;;;;;;3.75;1.80;;;20.60;99.90;;;;;;5103884;28;20118;-74
2022/06/10 04:17:49;;;;;;;3.40;1.92;;;20.70;99.90;;;;;;5094805;28;20130;-74
2022/06/10 04:20:21;;;;;;;4.85;2.25;;;20.70;99.90;;;;;;5112674;28;20043;-74
2022/06/10 04:22:48;;;;;;;2.78;1.50;;;20.70;99.90;;;;;;5082221;28;20052;-73
2022/06/10 04:25:16;;;;;;;3.45;1.55;;;20.70;99.90;;;;;;5092248;28;20044;-74
2022/06/10 04:27:44;;;;;;;4.47;1.50;;;20.70;99.90;;;;;;5090942;28;20128;-74
2022/06/10 04:30:47;;;;;;;4.63;2.35;;;20.70;99.90;;;;;;5074383;28;20055;-74
2022/06/10 04:33:15;;;;;;;3.35;1.80;;;20.80;99.90;;;;;;5083944;28;20059;-74
2022/06/10 04:35:44;;;;;;;4.90;2.20;;;20.80;99.90;;;;;;5057428;28;20048;-74
2022/06/10 04:38:14;;;;;;;2.80;1.40;;;20.80;99.90;;;;;;5074289;28;20079;-74
2022/06/10 04:40:42;;;;;;;2.72;1.50;;;20.80;99.90;;;;;;5073580;28;20040;-74
2022/06/10 04:43:10;;;;;;;5.13;1.58;;;20.90;99.90;;;;;;5090563;28;20090;-74
2022/06/10 04:45:41;;;;;;;2.53;1.48;;;21.00;99.90;;;;;;5091151;28;20043;-74
2022/06/10 04:48:11;;;;;;;3.67;1.65;;;21.20;99.90;;;;;;5090707;28;20115;-75
2022/06/10 04:50:40;;;;;;;5.72;1.65;;;21.30;99.90;;;;;;5090392;28;20043;-74
2022/06/10 04:53:08;;;;;;;2.65;1.30;;;21.40;99.90;;;;;;5091968;28;20044;-74
2022/06/10 04:55:36;;;;;;;5.50;1.40;;;21.60;99.90;;;;;;5073874;28;20561;-74
2022/06/10 04:58:05;;;;;;;6.07;1.38;;;21.70;99.90;;;;;;5091821;28;20048;-74
2022/06/10 05:00:37;;;;;;;2.20;1.42;;;21.80;99.90;;;;;;5090065;28;20570;-74
2022/06/10 05:03:05;;;;;;;3.70;1.38;;;22.00;99.90;;;;;;5090575;28;20052;-74
2022/06/10 05:05:33;;;;;;;4.63;1.83;;;22.10;99.90;;;;;;5090391;28;20149;-74
2022/06/10 05:08:02;;;;;;;1.85;1.27;;;22.30;99.90;;;;;;5073634;28;20056;-74
2022/06/10 05:10:29;;;;;;;1.98;1.05;;;22.40;99.90;;;;;;5104193;28;20043;-74
2022/06/10 05:12:57;;;;;;;4.20;1.38;;;22.60;99.90;;;;;;5092467;28;20487;-74
2022/06/10 05:15:28;;;;;;;2.05;1.30;;;22.70;99.90;;;;;;5110448;28;20035;-74
2022/06/10 05:17:58;;;;;;;8.10;1.95;;;22.90;99.90;;;;;;5092943;28;20415;-74
2022/06/10 05:20:33;;;;;;;2.00;1.35;;;23.00;99.90;;;;;;5093230;28;20162;-75
2022/06/10 05:23:02;;;;;;;5.82;1.40;;;23.10;99.90;;;;;;5093325;28;20134;-74
2022/06/10 05:25:31;;;;;;;2.53;1.23;;;23.30;99.90;;;;;;5110603;28;20090;-74
2022/06/10 05:27:59;;;;;;;2.17;1.00;;;23.40;99.90;;;;;;5111507;28;20152;-74
2022/06/10 05:30:30;;;;;;;2.00;1.10;;;23.50;99.90;;;;;;5109825;28;20519;-75
2022/06/10 05:33:00;;;;;;;3.53;1.20;;;23.60;99.90;;;;;;5109916;28;20088;-75
2022/06/10 05:35:29;;;;;;;2.92;1.50;;;23.70;99.90;;;;;;5111390;28;20035;-74
2022/06/10 05:37:57;;;;;;;4.50;0.90;;;23.80;99.90;;;;;;5093377;28;20075;-74
2022/06/10 05:40:28;;;;;;;5.10;1.40;;;23.80;99.90;;;;;;5110357;28;20107;-75
2022/06/10 05:42:56;;;;;;;1.70;1.10;;;23.90;99.90;;;;;;5093384;28;20043;-74
2022/06/10 05:45:25;;;;;;;1.38;1.13;;;23.90;99.90;;;;;;5111408;28;20112;-74
2022/06/10 05:47:58;;;;;;;2.88;1.10;;;24.00;99.90;;;;;;5093312;28;20047;-74
2022/06/10 05:50:37;;;;;;;2.55;1.10;;;24.00;99.90;;;;;;5109773;28;20478;-74
2022/06/10 05:53:08;;;;;;;2.08;1.15;;;24.10;99.90;;;;;;5093429;28;20047;-75
2022/06/10 05:55:37;;;;;;;2.15;1.20;;;24.20;99.90;;;;;;5088859;28;20527;-75
2022/06/10 05:58:07;;;;;;;2.03;1.13;;;24.30;99.90;;;;;;5089649;28;20052;-74
2022/06/10 06:00:35;;;;;;;2.58;1.52;;;24.30;99.90;;;;;;5089405;28;20040;-75
2022/06/10 06:03:03;;;;;;;4.53;1.00;;;24.20;99.90;;;;;;5072759;28;20062;-75
2022/06/10 06:05:31;;;;;;;2.78;1.23;;;24.20;99.90;;;;;;5072828;28;20556;-75
2022/06/10 06:07:58;;;;;;;4.25;1.75;;;24.10;99.90;;;;;;5090453;28;20571;-75
2022/06/10 06:10:28;;;;;;;2.88;1.02;;;24.10;99.90;;;;;;5089123;28;20048;-75
2022/06/10 06:12:56;;;;;;;3.38;1.20;;;24.00;99.90;;;;;;5072164;28;20140;-74
2022/06/10 06:15:24;;;;;;;4.22;1.70;;;24.00;99.90;;;;;;5090467;28;20139;-75
2022/06/10 06:17:53;;;;;;;1.80;0.95;;;23.80;99.90;;;;;;5089430;28;20040;-75
2022/06/10 06:20:22;;;;;;;1.02;0.90;;;23.80;99.90;;;;;;5089161;28;20054;-74
2022/06/10 06:22:49;;;;;;;2.70;1.20;;;23.70;99.90;;;;;;5088930;28;20044;-74
2022/06/10 06:25:18;;;;;;;2.38;1.10;;;24.00;99.90;;;;;;5089152;28;20075;-74
2022/06/10 06:27:51;;;;;;;2.50;0.90;;;24.10;99.90;;;;;;5088716;28;20052;-74
2022/06/10 06:30:26;;;;;;;1.88;1.30;;;24.50;99.90;;;;;;5089175;28;20048;-74
2022/06/10 06:32:54;;;;;;;;;;;24.80;99.90;;;;;;5089761;28;20036;-74
2022/06/10 06:35:22;;;;;;;3.25;1.58;;;24.90;99.90;;;;;;5105601;28;19930;-74
2022/06/10 06:37:50;;;;;;;2.78;0.93;;;24.90;99.90;;;;;;5089417;28;20036;-74
2022/06/10 06:40:18;;;;;;;1.90;1.00;;;24.80;99.90;;;;;;5090143;28;20086;-74
2022/06/10 06:42:47;;;;;;;2.25;0.80;;;24.60;99.90;;;;;;5071831;28;20048;-74
2022/06/10 06:45:16;;;;;;;2.28;1.02;;;24.40;99.90;;;;;;5075032;28;20055;-74
2022/06/10 06:47:49;;;;;;;1.35;0.90;;;24.30;99.90;;;;;;5093253;28;20447;-74
2022/06/10 06:50:19;;;;;;;1.83;1.00;;;24.30;99.90;;;;;;5096455;28;20054;-74
2022/06/10 06:52:47;;;;;;;1.85;1.10;;;24.10;99.90;;;;;;5112947;28;20040;-74
2022/06/10 06:55:15;;;;;;;0.70;0.50;;;24.10;99.90;;;;;;5095937;28;20052;-74
2022/06/10 06:57:44;;;;;;;1.40;0.90;;;24.10;99.90;;;;;;5096034;28;20047;-74
2022/06/10 07:00:14;;;;;;;2.28;0.88;;;24.10;99.90;;;;;;5113600;28;20043;-74
2022/06/10 07:02:42;;;;;;;3.42;1.08;;;24.30;99.90;;;;;;5096377;28;20052;-74
2022/06/10 07:05:12;;;;;;;1.30;0.90;;;24.60;99.90;;;;;;5113041;28;20135;-74
2022/06/10 07:07:41;;;;;;;3.10;1.20;;;25.00;99.90;;;;;;5113026;28;20036;-74
2022/06/10 07:10:12;;;;;;;3.55;1.20;;;25.40;99.90;;;;;;5114087;28;20138;-74
2022/06/10 07:12:39;;;;;;;3.60;0.90;;;25.70;99.30;;;;;;5111892;28;20040;-74
2022/06/10 07:15:08;;;;;;;2.22;0.77;;;26.00;98.70;;;;;;5114077;28;20054;-74
2022/06/10 07:17:36;;;;;;;1.45;0.77;;;26.20;98.20;;;;;;5096105;28;20044;-75
2022/06/10 07:20:06;;;;;;;0.90;0.75;;;26.50;97.70;;;;;;5113044;28;20049;-76
2022/06/10 07:22:34;;;;;;;0.77;0.75;;;26.60;96.80;;;;;;5095817;28;20043;-76
2022/06/10 07:25:02;;;;;;;1.52;0.90;;;26.80;96.40;;;;;;5113902;28;20185;-76
2022/06/10 07:27:30;;;;;;;3.03;0.90;;;27.00;96.10;;;;;;5113631;28;20389;-75
2022/06/10 07:30:02;;;;;;;1.58;0.85;;;27.10;96.10;;;;;;5114125;28;20168;-76
2022/06/10 07:32:30;;;;;;;2.97;0.88;;;27.30;96.30;;;;;;5113445;28;20085;-76
2022/06/10 07:34:58;;;;;;;0.65;0.45;;;27.20;96.30;;;;;;5113560;28;20458;-75
2022/06/10 07:37:25;;;;;;;1.25;0.50;;;27.20;95.80;;;;;;5110538;28;20083;-75
2022/06/10 07:39:53;;;;;;;0.57;0.43;;;27.00;95.20;;;;;;5112857;28;20050;-74
2022/06/10 07:42:21;;;;;;;0.80;0.60;;;26.80;94.90;;;;;;5095498;28;20055;-76
2022/06/10 07:44:49;;;;;;;0.52;0.52;;;26.60;95.60;;;;;;5112232;28;20509;-76
2022/06/10 07:47:17;;;;;;;5.13;1.15;;;26.50;95.80;;;;;;5112436;28;20043;-76
2022/06/10 07:49:44;;;;;;;0.52;0.50;;;26.60;95.80;;;;;;5112316;28;20048;-76
2022/06/10 07:52:12;;;;;;;1.85;1.05;;;26.50;95.50;;;;;;5095128;28;20130;-74
2022/06/10 07:54:40;;;;;;;0.43;0.40;;;26.40;94.70;;;;;;5094987;28;20520;-74
2022/06/10 07:57:11;;;;;;;1.20;0.73;;;26.20;95.00;;;;;;5112460;28;20108;-74
2022/06/10 07:59:42;;;;;;;2.05;0.80;;;26.00;95.40;;;;;;5111659;28;20044;-74
2022/06/10 08:02:10;;;;;;;1.17;0.77;;;25.80;95.50;;;;;;5095079;28;20051;-74
2022/06/10 08:04:37;;;;;;;1.02;0.57;;;25.70;95.90;;;;;;5111533;28;20043;-74
2022/06/10 08:07:05;;;;;;;2.08;0.60;;;25.70;95.90;;;;;;5112097;28;20050;-74
2022/06/10 08:09:36;;;;;;;1.38;0.73;;;25.80;95.30;;;;;;5111839;28;20036;-74
2022/06/10 08:12:04;;;;;;;1.45;0.70;;;26.00;95.30;;;;;;5112787;28;20036;-75
2022/06/10 08:14:32;;;;;;;1.33;0.80;;;26.20;95.40;;;;;;5094289;28;20055;-75
2022/06/10 08:17:03;;;;;;;1.98;1.00;;;26.20;95.20;;;;;;5111845;28;20039;-76
2022/06/10 08:19:32;;;;;;;1.35;0.80;;;26.10;95.30;;;;;;5111818;28;20093;-75
2022/06/10 08:24:46;;;;;;;0.80;0.70;;;26.50;94.70;;;;;;5112675;28;20032;-75
2022/06/10 08:27:14;;;;;;;1.40;0.77;;;26.80;94.30;;;;;;5111516;28;20058;-75
2022/06/10 08:29:41;;;;;;;1.80;0.70;;;26.60;94.10;;;;;;5109583;28;20050;-74
2022/06/10 08:32:09;;;;;;;0.63;0.63;;;26.80;94.00;;;;;;5111300;28;20058;-74
2022/06/10 08:34:41;;;;;;;1.17;0.77;;;27.00;93.70;;;;;;5110431;28;20069;-75
2022/06/10 08:37:10;;;;;;;1.45;0.60;;;27.20;93.50;;;;;;5092907;28;20047;-75
2022/06/10 08:39:38;;;;;;;1.55;0.82;;;27.40;93.70;;;;;;5110447;28;20184;-75
2022/06/10 08:42:25;;;;;;;4.20;1.00;;;27.70;93.30;;;;;;5110533;28;20055;-75
2022/06/10 08:44:58;;;;;;;1.10;0.65;;;27.80;92.80;;;;;;5112440;28;20051;-75
2022/06/10 08:47:32;;;;;;;0.90;0.50;;;28.00;92.60;;;;;;5110888;28;20043;-74
2022/06/10 08:50:25;;;;;;;1.23;0.60;;;28.00;92.70;;;;;;5110950;28;20053;-75
2022/06/10 08:52:56;;;;;;;1.17;0.57;;;27.70;92.50;;;;;;5110782;28;20086;-74
2022/06/10 08:55:32;;;;;;;1.92;0.70;;;27.20;92.20;;;;;;5111112;28;20039;-74
2022/06/10 08:58:30;;;;;;;3.40;0.98;;;26.90;92.60;;;;;;5094223;28;20048;-74
2022/06/10 09:01:06;;;;;;;1.17;0.73;;;26.60;92.90;;;;;;5104698;28;20053;-74
2022/06/10 09:03:43;;;;;;;2.00;1.10;;;26.30;92.90;;;;;;5110456;28;20058;-74
2022/06/10 09:06:38;;;;;;;2.30;1.20;;;26.10;92.60;;;;;;5093534;28;20062;-75
2022/06/10 09:09:10;;;;;;;2.03;1.17;;;25.90;92.80;;;;;;5109845;28;20047;-75
2022/06/10 09:11:51;;;;;;;1.42;1.13;;;25.70;94.00;;;;;;5110363;28;20051;-75
2022/06/10 09:14:21;;;;;;;1.92;0.75;;;25.50;94.40;;;;;;5103900;28;20071;-75
2022/06/10 09:17:13;;;;;;;2.00;0.90;;;25.40;94.60;;;;;;5093402;28;20394;-75
2022/06/10 09:19:59;;;;;;;2.83;1.10;;;25.40;94.80;;;;;;5089664;28;20386;-75
2022/06/10 09:22:30;;;;;;;2.63;0.98;;;25.50;94.80;;;;;;5089931;28;20047;-75
2022/06/10 09:25:31;;;;;;;2.25;1.08;;;25.70;94.40;;;;;;5073440;28;20055;-75
2022/06/10 09:28:00;;;;;;;2.40;1.05;;;25.90;93.90;;;;;;5082284;28;20043;-74
2022/06/10 09:30:43;;;;;;;3.20;1.30;;;25.90;93.80;;;;;;5072113;28;20464;-75
2022/06/10 09:33:25;;;;;;;5.28;1.10;;;26.10;94.20;;;;;;5072648;28;20059;-75
2022/06/10 09:36:08;;;;;;;1.90;1.00;;;26.20;94.10;;;;;;5091074;28;20078;-74
2022/06/10 09:38:38;;;;;;;6.18;1.10;;;26.30;93.90;;;;;;5072829;28;20089;-75
2022/06/10 09:41:06;;;;;;;2.42;1.10;;;26.40;93.90;;;;;;5091044;28;20067;-75
2022/06/10 09:43:49;;;;;;;2.70;0.80;;;26.60;93.50;;;;;;5091181;28;20134;-75
2022/06/10 09:47:05;;;;;;;2.67;0.90;;;26.80;93.20;;;;;;5082160;28;20058;-75
2022/06/10 09:50:00;;;;;;;2.55;0.90;;;26.80;93.30;;;;;;5048157;28;20048;-74
2022/06/10 09:53:06;;;;;;;2.40;1.60;;;26.80;93.70;;;;;;5072313;28;20528;-75
2022/06/10 09:55:59;;;;;;;1.23;0.90;;;26.60;93.70;;;;;;5063868;28;20071;-75
2022/06/10 09:59:08;;;;;;;1.88;0.90;;;26.50;94.00;;;;;;5069535;28;20086;-75
2022/06/10 10:01:35;;;;;;;2.63;1.10;;;26.50;94.50;;;;;;5084294;28;20842;-75
2022/06/10 10:04:21;;;;;;;2.22;1.02;;;26.50;94.30;;;;;;5090659;28;20071;-75
2022/06/10 10:07:03;;;;;;;2.15;1.10;;;26.60;93.90;;;;;;5072918;28;20097;-75
2022/06/10 10:10:06;;;;;;;2.58;1.50;;;26.80;93.60;;;;;;5089786;28;20047;-75
2022/06/10 10:13:11;;;;;;;3.47;1.27;;;26.90;93.00;;;;;;5109124;28;20134;-75
2022/06/10 10:15:51;;;;;;;2.97;1.17;;;27.00;93.50;;;;;;5109602;28;20449;-75
2022/06/10 10:18:45;;;;;;;3.85;1.00;;;26.90;93.50;;;;;;5110886;28;20046;-75
2022/06/10 10:21:27;;;;;;;1.05;0.73;;;26.80;93.30;;;;;;5110103;28;20165;-75
2022/06/10 10:23:58;;;;;;;3.58;1.25;;;26.70;93.20;;;;;;5094305;28;20047;-75
2022/06/10 10:26:33;;;;;;;2.70;0.93;;;26.60;93.60;;;;;;5110224;28;20044;-75
2022/06/10 10:29:06;;;;;;;1.55;1.15;;;26.50;93.90;;;;;;5076245;28;20052;-75
2022/06/10 10:31:49;;;;;;;3.67;0.88;;;26.40;93.90;;;;;;5091700;28;20492;-74
2022/06/10 10:34:25;;;;;;;3.80;1.05;;;26.40;93.80;;;;;;5058800;28;20055;-75
2022/06/10 10:37:02;;;;;;;1.38;0.70;;;26.60;93.30;;;;;;5075513;28;20066;-75
2022/06/10 10:39:34;;;;;;;4.28;1.38;;;26.60;93.20;;;;;;5075978;28;20710;-74
2022/06/10 10:42:33;;;;;;;1.25;0.73;;;26.60;93.20;;;;;;5075288;28;20063;-74
2022/06/10 10:45:03;;;;;;;0.85;0.80;;;26.80;93.00;;;;;;5092568;28;20044;-75
2022/06/10 10:47:34;;;;;;;1.95;0.90;;;26.70;92.70;;;;;;5110478;28;20039;-75
2022/06/10 10:50:03;;;;;;;3.00;1.10;;;26.80;92.80;;;;;;5109247;28;20055;-75
2022/06/10 10:52:34;;;;;;;2.42;1.13;;;26.80;93.40;;;;;;5092614;28;20054;-75
2022/06/10 10:55:13;;;;;;;2.15;0.80;;;26.80;93.20;;;;;;5101043;28;20569;-75
2022/06/10 10:57:51;;;;;;;1.08;0.93;;;26.80;93.40;;;;;;5089903;28;20045;-75
2022/06/10 11:00:39;;;;;;;1.27;0.82;;;26.60;93.40;;;;;;5055571;28;20379;-75
2022/06/10 11:03:26;;;;;;;2.67;0.85;;;26.70;93.90;;;;;;5072200;28;20048;-75
2022/06/10 11:05:56;;;;;;;2.15;0.88;;;26.60;93.30;;;;;;5088678;28;20437;-75
2022/06/10 11:08:30;;;;;;;2.60;0.90;;;26.50;92.70;;;;;;5072089;28;20071;-75
2022/06/10 11:11:07;;;;;;;1.83;0.90;;;26.50;93.50;;;;;;5055353;28;20048;-75
2022/06/10 11:13:42;;;;;;;2.90;1.45;;;26.40;94.60;;;;;;5089695;28;20081;-75
2022/06/10 11:16:35;;;;;;;;;;;26.50;94.70;;;;;;5055389;28;20040;-75
2022/06/10 11:19:23;;;;;;;2.17;1.35;;;26.40;94.70;;;;;;5054898;28;19929;-75
2022/06/10 11:21:55;;;;;;;1.48;0.70;;;26.40;94.80;;;;;;5072024;28;20048;-75
2022/06/10 11:24:27;;;;;;;1.58;0.70;;;26.40;94.60;;;;;;5055178;28;20044;-75
2022/06/10 11:27:01;;;;;;;1.58;0.90;;;26.30;94.40;;;;;;5089471;28;20052;-74
2022/06/10 11:29:29;;;;;;;6.97;1.02;;;26.30;94.80;;;;;;5087871;28;20040;-74
2022/06/10 11:32:04;;;;;;;6.55;2.65;;;26.20;94.60;;;;;;5073617;28;20048;-77
2022/06/10 11:34:43;;;;;;;20.80;17.20;;;26.10;94.90;;;;;;5075148;28;20048;-75
2022/06/10 11:37:26;;;;;;;8.40;6.53;;;25.90;95.00;;;;;;5058728;28;20044;-74
2022/06/10 11:40:09;;;;;;;23.25;19.50;;;25.90;95.40;;;;;;5058424;28;20059;-75
2022/06/10 11:43:02;;;;;;;7.93;5.05;;;25.90;95.20;;;;;;5075273;28;20513;-75
2022/06/10 11:45:51;;;;;;;3.78;1.33;;;25.90;95.50;;;;;;5092865;28;20040;-74
2022/06/10 11:48:55;;;;;;;6.80;4.00;;;25.90;94.70;;;;;;5095277;28;20509;-75
2022/06/10 11:51:28;;;;;;;24.65;20.33;;;26.00;94.30;;;;;;5090044;28;20052;-75
2022/06/10 11:54:04;;;;;;;129.60;98.03;;;26.00;93.90;;;;;;5072527;28;20519;-74
2022/06/10 12:00:07;;;;;;;208.60;185.30;;;25.90;94.60;;;;;;5105803;28;20118;-75
2022/06/10 12:02:44;;;;;;;221.98;182.20;;;25.90;95.00;;;;;;5102273;28;20480;-75
2022/06/10 12:05:30;;;;;;;577.47;474.98;;;25.90;95.00;;;;;;5093035;28;20044;-75
2022/06/10 12:08:16;;;;;;;;;;;26.00;95.30;;;;;;5109927;28;20054;-75
2022/06/10 12:11:15;;;;;;;37.60;32.83;;;25.90;95.10;;;;;;5105159;28;19924;-75
2022/06/10 12:13:59;;;;;;;7.45;5.32;;;25.90;94.20;;;;;;5089208;28;20052;-75
2022/06/10 12:16:30;;;;;;;5.90;3.10;;;26.00;94.90;;;;;;5110653;28;20105;-75
2022/06/10 12:19:01;;;;;;;6.38;3.05;;;26.00;95.20;;;;;;5109200;28;20031;-75
2022/06/10 12:21:30;;;;;;;7.38;4.00;;;26.00;95.10;;;;;;5110130;28;20171;-75
2022/06/10 12:23:58;;;;;;;3.38;2.50;;;26.00;94.60;;;;;;5108994;28;20054;-76
2022/06/10 12:26:35;;;;;;;2.03;1.40;;;26.00;94.50;;;;;;5108710;28;20051;-75
2022/06/10 12:29:25;;;;;;;2.80;1.80;;;25.90;94.70;;;;;;5099859;28;20779;-75
2022/06/10 12:32:24;;;;;;;2.78;1.90;;;25.80;94.50;;;;;;5110616;28;20476;-75
2022/06/10 12:35:13;;;;;;;3.45;1.55;;;25.90;94.70;;;;;;5108786;28;20069;-75
2022/06/10 12:37:49;;;;;;;3.88;1.95;;;26.00;94.80;;;;;;5098950;28;20043;-75
2022/06/10 12:40:23;;;;;;;2.33;1.30;;;26.00;95.00;;;;;;5089896;28;20493;-75
2022/06/10 12:42:55;;;;;;;4.47;2.03;;;25.90;95.00;;;;;;5109594;28;20032;-75
2022/06/10 12:45:35;;;;;;;7.20;2.58;;;25.90;95.00;;;;;;5074074;28;20055;-76
2022/06/10 12:48:16;;;;;;;2.35;1.70;;;25.90;94.40;;;;;;5091974;28;20620;-75
2022/06/10 12:51:12;;;;;;;3.55;2.13;;;25.70;94.10;;;;;;5094677;28;20048;-75
2022/06/10 12:53:59;;;;;;;2.40;1.35;;;25.70;94.60;;;;;;5070806;28;20066;-76
2022/06/10 12:56:33;;;;;;;2.10;1.40;;;25.80;93.80;;;;;;5077061;28;20142;-76
2022/06/10 12:59:07;;;;;;;2.60;1.70;;;25.90;93.40;;;;;;5109103;28;20558;-76
2022/06/10 13:01:35;;;;;;;2.25;1.60;;;25.90;94.20;;;;;;5110717;28;20051;-76
2022/06/10 13:04:19;;;;;;;4.63;1.83;;;25.90;94.30;;;;;;5107471;28;20607;-76
2022/06/10 13:06:56;;;;;;;5.15;1.70;;;26.00;93.60;;;;;;5107695;28;20044;-77
2022/06/10 13:09:35;;;;;;;2.15;1.35;;;26.00;93.40;;;;;;5110783;28;20069;-76
2022/06/10 13:12:09;;;;;;;1.98;1.33;;;25.90;93.60;;;;;;5093331;28;20393;-76
2022/06/10 13:14:44;;;;;;;11.98;3.40;;;25.80;94.30;;;;;;5111721;28;20371;-76
2022/06/10 13:17:21;;;;;;;5.07;1.98;;;25.90;95.00;;;;;;5110603;28;20047;-76
2022/06/10 13:19:54;;;;;;;2.58;1.52;;;25.90;95.10;;;;;;5093339;28;20059;-76
2022/06/10 13:22:25;;;;;;;2.92;1.60;;;26.00;95.20;;;;;;5093510;28;20044;-76
2022/06/10 13:24:55;;;;;;;2.33;1.48;;;26.10;95.00;;;;;;5110476;28;20044;-76
2022/06/10 13:27:35;;;;;;;3.03;1.45;;;26.20;94.80;;;;;;5093260;28;20683;-75
2022/06/10 13:30:17;;;;;;;4.60;1.77;;;26.20;94.80;;;;;;5093710;28;20168;-78
2022/06/10 13:32:52;;;;;;;2.60;1.20;;;26.20;94.60;;;;;;5109101;28;20061;-77
2022/06/10 13:35:27;;;;;;;2.40;1.75;;;26.20;94.20;;;;;;5091363;28;20044;-78
2022/06/10 13:38:03;;;;;;;2.05;1.40;;;26.30;94.30;;;;;;5089734;28;20040;-76
2022/06/10 13:40:31;;;;;;;;;;;26.20;94.70;;;;;;5090667;28;20071;-76
2022/06/10 13:43:04;;;;;;;6.70;2.03;;;26.10;93.30;;;;;;5089699;28;19971;-77